Ana Sayfa
METAR-TAF:

METAR-TAF

Havaalanları :

Craig, Colorado, Amerika Birleşik Devletleri

Enlem: 40-29-36N, Boylam: 107-31-25W, yükseklik: 1888 m

Güncel hava durumu gözlemi

Rapor saat 03:53 UTC de 46 dakika önce yapıldı.
Rüzgar doğudan 5 kt
Sıcaklık 21°C
Nem 49%
Basınç 1019 hPa
Görüş mesafesi: 16.1 km
Açık gökyüzü

METAR: KCAG 210353Z AUTO 09005KT 10SM CLR 21/10 A3009 RMK AO2 SLP115 T02110100

Saat: 22:39 (04:39 UTC)


TAF: eksik

4.000'den fazla havaalanı için hava durumu gözlemleri ve tahminleri (METAR ve TAF raporları).

Kullanılabilir istasyonlar harita üzerinde sarı ve kırmızı noktalarla gösterilir.

İstasyonun adını görmek için fareyi noktanın üzerinde gezdirin.

Sonrasında hava gözlem ve tahminlerini görmek için tıklayın.

Haritayı değiştirmek için: yaklaştırmak için siyah artı işaretli yeşil düğmeye ve uzaklaştırmak için de eksi işaretli düğmeye hızla tıklayın; bitişik haritalar için yeşil okları kullanın.


METAR-TAF: